Time;durP1;ratioP1;P1;durP2;ratioP2;P2;SDS_P1;SDS_P2;PMS_P1;PMS_P2;Temp;Humidity;BMP_temperature;BMP_pressure;BME280_temperature;BME280_humidity;BME280_pressure;Samples;Min_cycle;Max_cycle;Signal;HPM_P1;HPM_P2
2023/06/04 00:00:44;;;;;;;3.83;2.50;;;17.50;99.90;;;;;;5053744;28;20268;-61
2023/06/04 00:03:10;;;;;;;3.57;2.40;;;17.40;99.90;;;;;;5055046;28;20169;-60
2023/06/04 00:05:35;;;;;;;4.13;2.70;;;17.40;99.90;;;;;;5054643;28;20276;-60
2023/06/04 00:08:01;;;;;;;4.07;2.37;;;17.30;99.90;;;;;;5054931;28;20184;-61
2023/06/04 00:10:26;;;;;;;3.37;2.30;;;17.30;99.90;;;;;;5054758;28;20311;-61
2023/06/04 00:12:52;;;;;;;3.63;2.07;;;17.20;99.90;;;;;;5054566;28;20157;-61
2023/06/04 00:15:18;;;;;;;4.30;2.40;;;17.10;99.90;;;;;;5053897;28;20180;-60
2023/06/04 00:17:43;;;;;;;4.30;2.20;;;17.00;99.90;;;;;;5054043;28;20235;-60
2023/06/04 00:20:10;;;;;;;7.23;2.50;;;17.00;99.90;;;;;;5054533;28;20473;-61
2023/06/04 00:22:36;;;;;;;3.47;2.50;;;16.90;99.90;;;;;;5054637;28;20174;-59
2023/06/04 00:25:03;;;;;;;3.63;2.77;;;16.90;99.90;;;;;;5054278;28;20175;-61
2023/06/04 00:27:28;;;;;;;2.83;2.40;;;16.90;99.90;;;;;;5052718;28;20584;-60
2023/06/04 00:29:54;;;;;;;3.43;2.47;;;16.90;99.90;;;;;;5053655;28;20286;-61
2023/06/04 00:32:20;;;;;;;3.97;2.60;;;16.80;99.90;;;;;;5055133;28;20414;-61
2023/06/04 00:34:57;;;;;;;3.20;2.20;;;16.70;99.90;;;;;;5056115;28;20169;-61
2023/06/04 00:37:24;;;;;;;4.07;2.60;;;16.60;99.90;;;;;;5056401;28;20169;-62
2023/06/04 00:39:50;;;;;;;4.20;2.37;;;16.60;99.90;;;;;;5056010;28;20170;-60
2023/06/04 00:42:23;;;;;;;6.43;2.77;;;16.60;99.90;;;;;;5056555;28;20162;-61
2023/06/04 00:44:49;;;;;;;3.20;2.07;;;16.60;99.90;;;;;;5058090;28;20192;-61
2023/06/04 00:47:15;;;;;;;7.00;2.37;;;16.60;99.90;;;;;;5057843;28;20643;-61
2023/06/04 00:49:41;;;;;;;3.63;2.00;;;16.50;99.90;;;;;;5056667;28;20174;-61
2023/06/04 00:52:13;;;;;;;3.43;2.40;;;16.50;99.90;;;;;;5056953;28;20212;-63
2023/06/04 00:54:40;;;;;;;3.27;2.10;;;16.40;99.90;;;;;;5055580;28;20173;-61
2023/06/04 00:57:08;;;;;;;2.73;2.43;;;16.30;99.90;;;;;;5056481;28;20419;-62
2023/06/04 00:59:36;;;;;;;4.10;2.53;;;16.20;99.90;;;;;;5056779;28;20166;-61
2023/06/04 01:02:09;;;;;;;3.40;2.60;;;16.20;99.90;;;;;;5056858;28;20173;-61
2023/06/04 01:04:45;;;;;;;4.07;2.27;;;16.20;99.90;;;;;;5055850;28;20181;-62
2023/06/04 01:07:15;;;;;;;5.27;2.40;;;16.10;99.90;;;;;;5055819;28;20177;-61
2023/06/04 01:09:44;;;;;;;4.23;2.30;;;16.10;99.90;;;;;;5055545;28;20178;-61
2023/06/04 01:12:10;;;;;;;2.97;2.60;;;16.00;99.90;;;;;;5054737;28;20292;-61
2023/06/04 01:14:36;;;;;;;3.23;2.50;;;16.00;99.90;;;;;;5054682;28;20615;-62
2023/06/04 01:17:15;;;;;;;4.77;3.00;;;16.00;99.90;;;;;;5053685;28;20179;-61
2023/06/04 01:19:59;;;;;;;3.23;2.40;;;16.00;99.90;;;;;;5053146;28;20184;-61
2023/06/04 01:22:54;;;;;;;3.03;2.10;;;16.00;99.90;;;;;;5052790;28;20158;-58
2023/06/04 01:25:31;;;;;;;3.70;2.50;;;15.90;99.90;;;;;;5053475;28;20173;-61
2023/06/04 01:27:58;;;;;;;4.77;3.00;;;15.80;99.90;;;;;;5056772;28;20685;-61
2023/06/04 01:30:26;;;;;;;4.60;2.40;;;15.70;99.90;;;;;;5056639;28;20211;-61
2023/06/04 01:32:55;;;;;;;4.83;2.43;;;15.70;99.90;;;;;;5056556;28;20276;-62
2023/06/04 01:35:22;;;;;;;3.40;2.57;;;15.70;99.90;;;;;;5057463;28;20223;-61
2023/06/04 01:37:48;;;;;;;3.20;2.50;;;15.70;99.90;;;;;;5058369;28;20172;-60
2023/06/04 01:40:14;;;;;;;3.13;2.60;;;15.70;99.90;;;;;;5058619;28;20553;-59
2023/06/04 01:42:41;;;;;;;4.93;2.10;;;15.70;99.90;;;;;;5059104;28;20559;-61
2023/06/04 01:45:08;;;;;;;4.93;2.00;;;15.60;99.90;;;;;;5075933;28;20177;-62
2023/06/04 01:47:34;;;;;;;3.07;2.03;;;15.50;99.90;;;;;;5076334;28;20177;-61
2023/06/04 01:50:00;;;;;;;2.47;2.00;;;15.50;99.90;;;;;;5076831;28;20267;-61
2023/06/04 01:52:26;;;;;;;2.83;2.23;;;15.40;99.90;;;;;;5059079;28;20267;-61
2023/06/04 01:54:52;;;;;;;3.23;2.67;;;15.40;99.90;;;;;;5075829;28;20426;-61
2023/06/04 01:57:20;;;;;;;3.63;2.40;;;15.40;99.90;;;;;;5059433;28;20686;-61
2023/06/04 01:59:46;;;;;;;3.27;2.33;;;15.30;99.90;;;;;;5076892;28;20168;-61
2023/06/04 02:02:12;;;;;;;3.43;2.20;;;15.30;99.90;;;;;;5076156;28;20247;-60
2023/06/04 02:04:41;;;;;;;3.00;2.43;;;15.20;99.90;;;;;;5092446;28;20557;-62
2023/06/04 02:07:08;;;;;;;3.27;2.40;;;15.20;99.90;;;;;;5092354;28;20203;-61
2023/06/04 02:09:34;;;;;;;6.23;2.60;;;15.20;99.90;;;;;;5059375;28;20500;-62
2023/06/04 02:12:00;;;;;;;4.97;2.53;;;15.10;99.90;;;;;;5057664;28;20226;-61
2023/06/04 02:14:26;;;;;;;3.93;2.80;;;15.00;99.90;;;;;;5075801;28;20165;-61
2023/06/04 02:16:57;;;;;;;3.33;2.43;;;15.00;99.90;;;;;;5076201;28;20535;-61
2023/06/04 02:19:23;;;;;;;4.17;2.60;;;15.00;99.90;;;;;;5058241;28;20169;-61
2023/06/04 02:21:48;;;;;;;4.57;2.60;;;15.00;99.90;;;;;;5057310;28;20251;-61
2023/06/04 02:24:14;;;;;;;4.97;2.90;;;15.00;99.90;;;;;;5058648;28;20168;-60
2023/06/04 02:26:40;;;;;;;3.23;2.40;;;15.00;99.90;;;;;;5091520;28;20318;-61
2023/06/04 02:29:22;;;;;;;3.87;2.47;;;14.90;99.90;;;;;;5058625;28;20717;-61
2023/06/04 02:31:47;;;;;;;3.47;2.60;;;14.80;99.90;;;;;;5092507;28;20307;-62
2023/06/04 02:34:13;;;;;;;3.80;2.53;;;14.80;99.90;;;;;;5059041;28;20208;-62
2023/06/04 02:36:39;;;;;;;3.60;2.70;;;14.80;99.90;;;;;;5058366;28;20317;-61
2023/06/04 02:39:04;;;;;;;4.53;2.73;;;14.70;99.90;;;;;;5059179;28;20264;-61
2023/06/04 02:41:30;;;;;;;3.13;2.13;;;14.70;99.90;;;;;;5059288;28;20176;-62
2023/06/04 02:43:55;;;;;;;5.23;2.70;;;14.70;99.90;;;;;;5058908;28;20172;-62
2023/06/04 02:46:21;;;;;;;5.03;2.43;;;14.70;99.90;;;;;;5058942;28;20696;-61
2023/06/04 02:48:47;;;;;;;7.30;2.97;;;14.70;99.90;;;;;;5058208;28;20595;-61
2023/06/04 02:51:12;;;;;;;3.13;2.40;;;14.70;99.90;;;;;;5075203;28;20200;-61
2023/06/04 02:53:38;;;;;;;5.63;2.80;;;14.70;99.90;;;;;;5079271;28;20195;-61
2023/06/04 02:56:04;;;;;;;7.23;2.60;;;14.60;99.90;;;;;;5060296;28;20318;-61
2023/06/04 02:58:31;;;;;;;3.83;2.10;;;14.60;99.90;;;;;;5055518;28;20298;-61
2023/06/04 03:00:56;;;;;;;5.70;2.20;;;14.60;99.90;;;;;;5055876;28;20428;-62
2023/06/04 03:03:22;;;;;;;4.63;2.50;;;14.50;99.90;;;;;;5056256;28;20606;-61
2023/06/04 03:05:49;;;;;;;2.43;2.23;;;14.50;99.90;;;;;;5057102;28;20180;-60
2023/06/04 03:08:14;;;;;;;6.10;2.37;;;14.50;99.90;;;;;;5075099;28;20557;-61
2023/06/04 03:10:40;;;;;;;3.30;2.33;;;14.50;99.90;;;;;;5057891;28;20660;-61
2023/06/04 03:13:06;;;;;;;4.27;2.20;;;14.40;99.90;;;;;;5058555;28;20322;-61
2023/06/04 03:15:32;;;;;;;5.23;2.80;;;14.40;99.90;;;;;;5075177;28;20191;-59
2023/06/04 03:17:58;;;;;;;4.83;2.23;;;14.40;99.90;;;;;;5057411;28;20460;-61
2023/06/04 03:20:24;;;;;;;6.30;2.57;;;14.40;99.90;;;;;;5090144;28;20587;-60
2023/06/04 03:22:51;;;;;;;2.87;2.10;;;14.40;99.90;;;;;;5060975;28;20265;-61
2023/06/04 03:25:16;;;;;;;3.23;2.30;;;14.40;99.90;;;;;;5060887;28;20183;-61
2023/06/04 03:27:42;;;;;;;3.13;2.23;;;14.30;99.90;;;;;;5078494;28;20173;-61
2023/06/04 03:30:08;;;;;;;2.70;2.20;;;14.30;99.90;;;;;;5061406;28;20177;-61
2023/06/04 03:32:34;;;;;;;3.47;2.50;;;14.20;99.90;;;;;;5061285;28;20192;-62
2023/06/04 03:35:01;;;;;;;5.27;2.50;;;14.20;99.90;;;;;;5061419;28;20173;-61
2023/06/04 03:37:27;;;;;;;2.73;2.00;;;14.20;99.90;;;;;;5060752;28;20197;-62
2023/06/04 03:39:54;;;;;;;5.27;2.13;;;14.20;99.90;;;;;;5078785;28;20670;-61
2023/06/04 03:42:33;;;;;;;3.13;1.93;;;14.20;99.90;;;;;;5061388;28;20206;-61
2023/06/04 03:44:59;;;;;;;2.20;1.80;;;14.20;99.90;;;;;;5061551;28;20191;-62
2023/06/04 03:47:25;;;;;;;4.07;2.40;;;14.10;99.90;;;;;;5061478;28;20169;-61
2023/06/04 03:49:50;;;;;;;3.60;2.00;;;14.10;99.90;;;;;;5078178;28;20223;-61
2023/06/04 03:52:16;;;;;;;2.40;1.73;;;14.00;99.90;;;;;;5060790;28;20615;-61
2023/06/04 03:54:43;;;;;;;2.90;1.70;;;14.10;99.90;;;;;;5059611;28;20176;-63
2023/06/04 03:57:09;;;;;;;2.80;1.80;;;14.10;99.90;;;;;;5059593;28;20169;-61
2023/06/04 03:59:35;;;;;;;5.50;2.30;;;14.00;99.90;;;;;;5059982;28;20169;-61
2023/06/04 04:02:00;;;;;;;3.83;1.80;;;14.00;99.90;;;;;;5076867;28;20481;-63
2023/06/04 04:04:26;;;;;;;3.53;1.87;;;14.00;99.90;;;;;;5059264;28;20268;-61
2023/06/04 04:06:52;;;;;;;2.83;2.03;;;14.10;99.90;;;;;;5059928;28;20181;-61
2023/06/04 04:09:17;;;;;;;4.97;1.93;;;14.00;99.90;;;;;;5059288;28;20176;-61
2023/06/04 04:11:43;;;;;;;2.93;1.80;;;14.00;99.90;;;;;;5059046;28;20269;-61
2023/06/04 04:14:08;;;;;;;5.03;2.03;;;14.00;99.90;;;;;;5060019;28;20200;-62
2023/06/04 04:16:34;;;;;;;3.60;2.17;;;14.00;99.90;;;;;;5075166;28;20469;-62
2023/06/04 04:19:00;;;;;;;3.93;2.23;;;14.00;99.90;;;;;;5059156;28;20521;-61
2023/06/04 04:21:26;;;;;;;4.50;1.93;;;14.00;99.90;;;;;;5075455;28;20176;-62
2023/06/04 04:23:51;;;;;;;2.93;1.60;;;14.00;99.90;;;;;;5092533;28;20168;-61
2023/06/04 04:26:17;;;;;;;3.33;2.10;;;14.00;99.90;;;;;;5092257;28;20169;-62
2023/06/04 04:28:43;;;;;;;4.60;1.93;;;13.90;99.90;;;;;;5058333;28;20426;-62
2023/06/04 04:31:09;;;;;;;3.00;1.90;;;13.90;99.90;;;;;;5076488;28;20224;-61
2023/06/04 04:33:39;;;;;;;3.50;1.60;;;13.90;99.90;;;;;;5093059;28;20273;-61
2023/06/04 04:36:08;;;;;;;3.30;1.63;;;13.90;99.90;;;;;;5058777;28;20234;-60
2023/06/04 04:38:34;;;;;;;3.77;1.80;;;13.90;99.90;;;;;;5075716;28;20179;-60
2023/06/04 04:41:00;;;;;;;3.33;1.60;;;13.90;99.90;;;;;;5058970;28;20653;-61
2023/06/04 04:43:31;;;;;;;3.70;1.77;;;13.90;99.90;;;;;;5058020;28;20168;-61
2023/06/04 04:45:56;;;;;;;6.07;1.90;;;13.90;99.90;;;;;;5057484;28;20175;-61
2023/06/04 04:48:22;;;;;;;2.50;1.47;;;13.90;99.90;;;;;;5056099;28;20180;-61
2023/06/04 04:50:47;;;;;;;2.97;1.60;;;13.90;99.90;;;;;;5088281;28;20223;-62
2023/06/04 04:53:13;;;;;;;4.17;1.87;;;13.90;99.90;;;;;;5054232;28;20593;-61
2023/06/04 04:55:38;;;;;;;2.83;1.70;;;14.00;99.90;;;;;;5072689;28;20203;-61
2023/06/04 04:58:04;;;;;;;2.00;1.60;;;14.00;99.90;;;;;;5073213;28;20184;-62
2023/06/04 05:00:30;;;;;;;3.40;1.57;;;14.00;99.90;;;;;;5055161;28;20260;-61
2023/06/04 05:02:55;;;;;;;6.10;2.00;;;14.00;99.90;;;;;;5071855;28;20165;-61
2023/06/04 05:05:21;;;;;;;5.90;1.77;;;14.00;99.90;;;;;;5055544;28;20180;-60
2023/06/04 05:07:47;;;;;;;4.30;2.17;;;14.10;99.90;;;;;;5090056;28;20212;-61
2023/06/04 05:10:12;;;;;;;4.37;1.50;;;14.00;99.90;;;;;;5089106;28;20188;-61
2023/06/04 05:12:38;;;;;;;4.67;2.30;;;14.00;99.90;;;;;;5055342;28;20173;-61
2023/06/04 05:15:04;;;;;;;3.73;1.77;;;14.00;99.90;;;;;;5054625;28;20169;-63
2023/06/04 05:17:29;;;;;;;6.00;2.37;;;14.00;99.90;;;;;;5074631;28;20172;-61
2023/06/04 05:20:11;;;;;;;4.63;1.97;;;14.10;99.90;;;;;;5075197;28;20200;-61
2023/06/04 05:22:37;;;;;;;8.70;2.77;;;14.10;99.90;;;;;;5075105;28;20172;-59
2023/06/04 05:25:03;;;;;;;3.63;2.27;;;14.10;99.90;;;;;;5073390;28;20456;-61
2023/06/04 05:27:28;;;;;;;3.50;2.10;;;14.10;99.90;;;;;;5074105;28;20173;-61
2023/06/04 05:29:54;;;;;;;6.83;2.50;;;14.10;99.90;;;;;;5053691;28;20583;-61
2023/06/04 05:32:22;;;;;;;4.30;2.03;;;14.10;99.90;;;;;;5053892;28;20240;-61
2023/06/04 05:34:48;;;;;;;6.40;2.03;;;14.10;99.90;;;;;;5052720;28;20469;-61
2023/06/04 05:37:16;;;;;;;4.40;1.93;;;14.10;99.90;;;;;;5052088;28;20169;-61
2023/06/04 05:39:42;;;;;;;4.67;2.03;;;14.10;99.90;;;;;;5050725;28;20192;-61
2023/06/04 05:42:08;;;;;;;4.67;1.97;;;14.20;99.90;;;;;;5051918;28;20458;-61
2023/06/04 05:44:34;;;;;;;4.13;2.40;;;14.20;99.90;;;;;;5052518;28;20455;-61
2023/06/04 05:46:59;;;;;;;4.57;2.10;;;14.20;99.90;;;;;;5051803;28;20184;-61
2023/06/04 05:49:26;;;;;;;3.27;1.70;;;14.20;99.90;;;;;;5051207;28;20644;-62
2023/06/04 05:51:51;;;;;;;8.77;2.33;;;14.20;99.90;;;;;;5053471;28;20197;-61
2023/06/04 05:54:17;;;;;;;6.47;2.07;;;14.30;99.90;;;;;;5053870;28;20168;-61
2023/06/04 05:56:42;;;;;;;3.20;1.83;;;14.30;99.90;;;;;;5053320;28;20173;-61
2023/06/04 05:59:08;;;;;;;5.90;2.40;;;14.30;99.90;;;;;;5052917;28;20184;-61
2023/06/04 06:01:34;;;;;;;6.77;2.27;;;14.30;99.90;;;;;;5053145;28;20183;-61
2023/06/04 06:04:00;;;;;;;5.80;1.87;;;14.30;99.90;;;;;;5053455;28;20173;-61
2023/06/04 06:06:26;;;;;;;4.93;1.67;;;14.30;99.90;;;;;;5052866;28;20169;-61
2023/06/04 06:08:53;;;;;;;5.47;2.07;;;14.40;99.90;;;;;;5052612;28;20185;-61
2023/06/04 06:11:18;;;;;;;4.00;1.67;;;14.40;99.90;;;;;;5046388;28;20201;-61
2023/06/04 06:13:44;;;;;;;3.43;1.57;;;14.40;99.90;;;;;;5044417;28;20169;-61
2023/06/04 06:16:09;;;;;;;3.23;1.70;;;14.40;99.90;;;;;;5044051;28;20577;-63
2023/06/04 06:18:35;;;;;;;4.10;2.10;;;14.50;99.90;;;;;;5045531;28;20510;-61
2023/06/04 06:21:01;;;;;;;5.67;1.77;;;14.50;99.90;;;;;;5045723;28;20755;-60
2023/06/04 06:23:26;;;;;;;3.07;1.30;;;14.50;99.90;;;;;;5050739;28;20475;-61
2023/06/04 06:25:52;;;;;;;3.07;1.57;;;14.50;99.90;;;;;;5049585;28;20169;-61
2023/06/04 06:28:18;;;;;;;4.17;1.50;;;14.50;99.90;;;;;;5051832;28;20224;-61
2023/06/04 06:30:44;;;;;;;5.60;1.70;;;14.50;99.90;;;;;;5052252;28;20211;-61
2023/06/04 06:33:10;;;;;;;4.17;1.60;;;14.60;99.90;;;;;;5053724;28;20181;-62
2023/06/04 06:35:35;;;;;;;5.60;1.73;;;14.60;99.90;;;;;;5056321;28;20169;-61
2023/06/04 06:38:01;;;;;;;4.67;1.80;;;14.60;99.90;;;;;;5057218;28;20193;-60
2023/06/04 06:40:27;;;;;;;4.80;1.63;;;14.60;99.90;;;;;;5057439;28;20268;-62
2023/06/04 06:42:52;;;;;;;3.80;1.73;;;14.60;99.90;;;;;;5056860;28;20217;-60
2023/06/04 06:45:19;;;;;;;4.13;1.90;;;14.70;99.90;;;;;;5056789;28;20238;-61
2023/06/04 06:47:45;;;;;;;4.87;1.60;;;14.70;99.90;;;;;;5055873;28;20475;-61
2023/06/04 06:50:11;;;;;;;2.33;1.30;;;14.70;99.90;;;;;;5054800;28;20715;-61
2023/06/04 06:52:37;;;;;;;5.70;1.90;;;14.80;99.90;;;;;;5053451;28;20173;-61
2023/06/04 06:55:04;;;;;;;3.77;1.93;;;14.80;99.90;;;;;;5054200;28;20174;-61
2023/06/04 06:57:30;;;;;;;4.47;1.67;;;14.80;99.90;;;;;;5051220;28;20205;-61
2023/06/04 06:59:56;;;;;;;3.47;1.60;;;14.90;99.90;;;;;;5050846;28;20204;-61
2023/06/04 07:02:22;;;;;;;3.63;1.30;;;14.90;99.90;;;;;;5052337;28;20803;-60
2023/06/04 07:04:48;;;;;;;3.10;1.47;;;14.90;99.90;;;;;;5051577;28;20182;-60
2023/06/04 07:07:13;;;;;;;4.07;1.77;;;14.90;99.90;;;;;;5052712;28;20173;-62
2023/06/04 07:09:39;;;;;;;5.37;1.70;;;14.90;99.90;;;;;;5052452;28;20201;-61
2023/06/04 07:12:06;;;;;;;4.20;1.30;;;15.00;99.90;;;;;;5051829;28;20212;-62
2023/06/04 07:14:32;;;;;;;4.70;1.63;;;15.00;99.90;;;;;;5052606;28;20601;-61
2023/06/04 07:16:57;;;;;;;4.07;1.50;;;15.00;99.90;;;;;;5052778;28;20577;-62
2023/06/04 07:19:23;;;;;;;4.70;1.30;;;15.00;99.90;;;;;;5052972;28;20228;-61
2023/06/04 07:21:50;;;;;;;4.47;1.90;;;15.10;99.90;;;;;;5050890;28;20180;-61
2023/06/04 07:24:15;;;;;;;6.80;1.60;;;15.10;99.90;;;;;;5050691;28;20173;-61
2023/06/04 07:26:41;;;;;;;1.83;1.27;;;15.10;99.90;;;;;;5052341;28;20174;-61
2023/06/04 07:29:07;;;;;;;2.87;1.23;;;15.20;99.90;;;;;;5050643;28;20229;-61
2023/06/04 07:31:32;;;;;;;2.90;1.27;;;15.20;99.90;;;;;;5051194;28;20209;-61
2023/06/04 07:33:58;;;;;;;5.83;1.47;;;15.20;99.90;;;;;;5050965;28;20272;-61
2023/06/04 07:36:23;;;;;;;2.20;1.10;;;15.20;99.90;;;;;;5050131;28;20178;-61
2023/06/04 07:38:49;;;;;;;4.00;1.50;;;15.30;99.90;;;;;;5051651;28;20181;-61
2023/06/04 07:41:15;;;;;;;2.93;1.50;;;15.30;99.90;;;;;;5050289;28;20178;-61
2023/06/04 07:43:42;;;;;;;3.23;1.57;;;15.30;99.90;;;;;;5049322;28;20170;-61
2023/06/04 07:46:09;;;;;;;2.53;1.43;;;15.40;99.90;;;;;;5049850;28;20813;-61
2023/06/04 07:48:35;;;;;;;4.93;2.10;;;15.40;99.90;;;;;;5049175;28;20169;-61
2023/06/04 07:51:02;;;;;;;3.10;1.43;;;15.40;99.90;;;;;;5051242;28;20201;-61
2023/06/04 07:53:28;;;;;;;1.70;1.23;;;15.50;99.90;;;;;;5050362;28;20173;-60
2023/06/04 07:55:55;;;;;;;6.10;1.53;;;15.50;99.90;;;;;;5051069;28;20166;-61
2023/06/04 07:58:20;;;;;;;2.17;1.30;;;15.50;99.90;;;;;;5051982;28;20482;-58
2023/06/04 08:00:46;;;;;;;3.40;1.47;;;15.60;99.90;;;;;;5051610;28;20218;-60
2023/06/04 08:03:11;;;;;;;3.53;1.90;;;15.60;99.90;;;;;;5052104;28;20174;-59
2023/06/04 08:05:37;;;;;;;3.37;1.67;;;15.60;99.90;;;;;;5036528;28;20173;-61
2023/06/04 08:08:03;;;;;;;3.60;1.70;;;15.70;99.90;;;;;;5053217;28;20223;-61
2023/06/04 08:10:30;;;;;;;2.70;1.40;;;15.70;99.90;;;;;;5053232;28;20197;-60
2023/06/04 08:12:56;;;;;;;2.07;1.40;;;15.70;99.90;;;;;;5052409;28;20472;-61
2023/06/04 08:15:21;;;;;;;2.70;1.80;;;15.80;99.90;;;;;;5049170;28;20237;-61
2023/06/04 08:17:47;;;;;;;4.97;1.60;;;15.80;99.90;;;;;;5045110;28;20197;-61
2023/06/04 08:20:13;;;;;;;2.73;1.23;;;15.80;99.90;;;;;;5042050;28;20452;-61
2023/06/04 08:22:38;;;;;;;2.43;1.50;;;15.80;99.90;;;;;;5050634;28;20482;-61
2023/06/04 08:25:05;;;;;;;2.77;1.60;;;15.90;99.90;;;;;;5049764;28;20177;-61
2023/06/04 08:27:30;;;;;;;4.63;1.60;;;15.90;99.90;;;;;;5050180;28;20618;-62
2023/06/04 08:29:57;;;;;;;3.60;1.40;;;15.90;99.90;;;;;;5052307;28;20217;-62
2023/06/04 08:32:23;;;;;;;3.33;1.53;;;16.00;99.90;;;;;;5051518;28;20201;-60
2023/06/04 08:34:48;;;;;;;4.83;1.57;;;16.10;99.90;;;;;;5052055;28;20449;-61
2023/06/04 08:37:15;;;;;;;3.57;1.77;;;16.10;99.90;;;;;;5051938;28;20591;-58
2023/06/04 08:39:41;;;;;;;4.53;1.30;;;16.10;99.90;;;;;;5051460;28;20162;-61
2023/06/04 08:42:09;;;;;;;5.17;1.53;;;16.20;99.90;;;;;;5052903;28;20230;-61
2023/06/04 08:44:35;;;;;;;5.57;2.30;;;16.20;99.90;;;;;;5052545;28;20203;-62
2023/06/04 08:47:08;;;;;;;2.77;1.50;;;16.20;99.90;;;;;;5051883;28;20269;-61
2023/06/04 08:49:36;;;;;;;4.07;1.60;;;16.30;99.90;;;;;;5051804;28;20166;-61
2023/06/04 08:52:02;;;;;;;3.33;1.60;;;16.30;99.90;;;;;;5052801;28;20220;-61
2023/06/04 08:54:29;;;;;;;1.70;1.10;;;16.30;99.90;;;;;;5053431;28;20556;-61
2023/06/04 08:56:57;;;;;;;7.73;1.60;;;16.30;99.90;;;;;;5054152;28;20165;-62
2023/06/04 08:59:23;;;;;;;2.93;1.20;;;16.40;99.90;;;;;;5054048;28;20479;-61
2023/06/04 09:01:53;;;;;;;3.17;1.20;;;16.50;99.90;;;;;;5053296;28;20599;-61
2023/06/04 09:04:19;;;;;;;6.83;1.17;;;16.50;99.90;;;;;;5053337;28;20475;-61
2023/06/04 09:06:45;;;;;;;2.90;1.60;;;16.60;99.90;;;;;;5053559;28;20529;-61
2023/06/04 09:09:15;;;;;;;4.77;1.70;;;16.60;99.90;;;;;;5054341;28;20852;-60
2023/06/04 09:11:59;;;;;;;6.33;1.33;;;16.80;99.90;;;;;;5051901;28;20212;-61
2023/06/04 09:14:25;;;;;;;2.57;1.20;;;16.80;99.90;;;;;;5051876;28;20280;-61
2023/06/04 09:16:53;;;;;;;2.40;1.37;;;16.70;99.90;;;;;;5049835;28;20224;-61
2023/06/04 09:19:19;;;;;;;2.40;1.30;;;16.80;99.90;;;;;;5047110;28;20161;-61
2023/06/04 09:22:00;;;;;;;2.23;1.10;;;16.80;99.90;;;;;;5047508;28;20183;-61
2023/06/04 09:24:45;;;;;;;2.27;1.00;;;16.80;99.90;;;;;;5048459;28;20234;-61
2023/06/04 09:27:16;;;;;;;1.47;1.03;;;16.90;99.90;;;;;;5047165;28;20165;-61
2023/06/04 09:29:52;;;;;;;1.80;0.80;;;16.90;99.90;;;;;;5047672;28;20278;-62
2023/06/04 09:32:24;;;;;;;3.10;1.27;;;16.90;99.90;;;;;;5046878;28;20232;-60
2023/06/04 09:34:50;;;;;;;2.50;1.20;;;17.00;99.90;;;;;;5044777;28;20169;-62
2023/06/04 09:37:19;;;;;;;3.20;1.10;;;17.10;99.90;;;;;;5043753;28;20192;-61
2023/06/04 09:39:55;;;;;;;4.67;1.33;;;17.20;99.90;;;;;;5044494;28;20213;-61
2023/06/04 09:42:24;;;;;;;5.97;1.10;;;17.20;99.90;;;;;;5045523;28;20279;-61
2023/06/04 09:44:49;;;;;;;2.83;1.37;;;17.20;99.90;;;;;;5044883;28;20173;-61
2023/06/04 09:47:15;;;;;;;3.47;1.37;;;17.20;99.90;;;;;;5044419;28;20185;-61
2023/06/04 09:49:45;;;;;;;3.73;1.40;;;17.20;99.90;;;;;;5050187;28;20199;-61
2023/06/04 09:52:12;;;;;;;1.60;1.20;;;17.30;99.90;;;;;;5050147;28;20212;-61
2023/06/04 09:54:39;;;;;;;2.83;1.30;;;17.30;99.90;;;;;;5050507;28;20177;-61
2023/06/04 09:57:18;;;;;;;3.77;1.17;;;17.40;99.90;;;;;;5050021;28;20174;-62
2023/06/04 09:59:49;;;;;;;3.67;1.30;;;17.40;99.90;;;;;;5051264;28;20170;-61
2023/06/04 10:02:22;;;;;;;2.83;1.20;;;17.40;99.90;;;;;;5051480;28;20169;-61
2023/06/04 10:04:58;;;;;;;2.20;0.97;;;17.50;99.90;;;;;;5052206;28;20347;-61
2023/06/04 10:07:25;;;;;;;1.63;0.80;;;17.40;99.90;;;;;;5052492;28;20250;-60
2023/06/04 10:09:52;;;;;;;2.10;0.80;;;17.50;99.90;;;;;;5051541;28;20177;-61
2023/06/04 10:12:25;;;;;;;2.80;1.30;;;17.50;99.90;;;;;;5051010;28;20236;-61
2023/06/04 10:15:03;;;;;;;1.80;1.10;;;17.60;99.90;;;;;;5051227;28;20793;-61
2023/06/04 10:17:30;;;;;;;1.87;1.10;;;17.60;99.90;;;;;;5050381;28;20169;-60
2023/06/04 10:19:57;;;;;;;3.53;1.10;;;17.60;99.90;;;;;;5050161;28;20161;-60
2023/06/04 10:22:24;;;;;;;1.33;0.93;;;17.70;99.90;;;;;;5049025;28;20180;-61
2023/06/04 10:24:50;;;;;;;2.60;1.37;;;17.70;99.90;;;;;;5049748;28;20165;-57
2023/06/04 10:27:20;;;;;;;3.83;1.20;;;17.80;99.90;;;;;;5047884;28;20227;-61
2023/06/04 10:29:46;;;;;;;1.60;1.03;;;17.80;99.90;;;;;;5064686;28;20550;-61
2023/06/04 10:32:12;;;;;;;2.03;0.90;;;17.90;99.90;;;;;;5067833;28;20649;-61
2023/06/04 10:34:38;;;;;;;2.33;1.20;;;17.90;99.90;;;;;;5067793;28;20771;-61
2023/06/04 10:37:04;;;;;;;2.80;1.10;;;18.00;99.90;;;;;;5050405;28;20169;-59
2023/06/04 10:39:35;;;;;;;4.20;1.70;;;18.00;99.90;;;;;;5049724;28;20164;-61
2023/06/04 10:42:07;;;;;;;2.70;1.00;;;18.00;99.90;;;;;;5048656;28;20219;-61
2023/06/04 10:44:46;;;;;;;2.10;1.30;;;18.00;99.90;;;;;;5047096;28;20173;-61
2023/06/04 10:47:26;;;;;;;2.20;1.30;;;18.10;99.90;;;;;;5046950;28;20687;-62
2023/06/04 10:49:53;;;;;;;4.07;1.20;;;18.20;99.90;;;;;;5064604;28;20188;-63
2023/06/04 10:52:20;;;;;;;1.90;0.83;;;18.20;99.90;;;;;;5048145;28;20541;-61
2023/06/04 10:54:48;;;;;;;3.50;1.33;;;18.20;99.90;;;;;;5047323;28;20161;-61
2023/06/04 10:57:18;;;;;;;2.43;1.40;;;18.30;99.90;;;;;;5046651;28;20200;-61
2023/06/04 11:00:03;;;;;;;3.67;1.40;;;18.30;99.90;;;;;;5046509;28;20217;-60
2023/06/04 11:02:30;;;;;;;1.67;1.20;;;18.40;99.80;;;;;;5047330;28;20636;-60
2023/06/04 11:05:19;;;;;;;3.53;1.30;;;18.40;99.90;;;;;;5045492;28;20169;-60
2023/06/04 11:07:49;;;;;;;2.87;1.10;;;18.40;99.90;;;;;;5046301;28;20164;-60
2023/06/04 11:10:17;;;;;;;3.83;2.37;;;18.50;99.90;;;;;;5045218;28;20168;-60
2023/06/04 11:12:47;;;;;;;2.67;1.40;;;18.50;99.90;;;;;;5047037;28;20665;-61
2023/06/04 11:15:15;;;;;;;3.27;1.30;;;18.60;99.90;;;;;;5050309;28;20626;-60
2023/06/04 11:17:58;;;;;;;2.13;1.30;;;18.60;99.90;;;;;;5049046;28;20179;-60
2023/06/04 11:20:25;;;;;;;3.43;1.17;;;18.60;99.90;;;;;;5051777;28;20169;-60
2023/06/04 11:22:52;;;;;;;2.30;1.30;;;18.70;99.90;;;;;;5070772;28;20218;-61
2023/06/04 11:25:19;;;;;;;1.93;1.53;;;18.80;99.90;;;;;;5070201;28;20172;-62
2023/06/04 11:27:47;;;;;;;2.37;1.40;;;18.80;99.90;;;;;;5053139;28;20330;-61
2023/06/04 11:30:13;;;;;;;1.53;1.30;;;18.80;99.90;;;;;;5070190;28;20169;-60
2023/06/04 11:32:40;;;;;;;3.10;1.30;;;18.90;99.90;;;;;;5050765;28;20204;-60
2023/06/04 11:35:07;;;;;;;2.73;1.20;;;19.00;99.90;;;;;;5051292;28;20233;-61
2023/06/04 11:37:33;;;;;;;2.33;1.20;;;19.00;99.90;;;;;;5050681;28;20173;-61
2023/06/04 11:40:01;;;;;;;4.20;1.60;;;19.10;99.90;;;;;;5049545;28;20172;-61
2023/06/04 11:42:29;;;;;;;2.67;1.37;;;19.20;99.90;;;;;;5066622;28;20766;-61
2023/06/04 11:44:56;;;;;;;1.80;1.23;;;19.30;99.90;;;;;;5084533;28;20181;-61
2023/06/04 11:47:24;;;;;;;1.70;1.10;;;19.40;99.90;;;;;;5067903;28;20161;-61
2023/06/04 11:49:56;;;;;;;2.83;1.27;;;19.50;99.90;;;;;;5067412;28;20169;-61
2023/06/04 11:52:23;;;;;;;5.47;1.40;;;19.60;99.90;;;;;;5032735;28;20835;-60
2023/06/04 11:54:50;;;;;;;5.43;1.67;;;19.70;99.00;;;;;;5047799;28;20173;-60
2023/06/04 11:57:16;;;;;;;3.70;1.87;;;19.80;99.20;;;;;;5048841;28;20261;-60
2023/06/04 11:59:43;;;;;;;3.07;1.40;;;19.80;98.20;;;;;;5047027;28;20235;-60
2023/06/04 12:02:10;;;;;;;2.87;1.60;;;19.90;99.10;;;;;;5062803;28;20418;-61
2023/06/04 12:04:37;;;;;;;5.87;1.40;;;20.00;99.20;;;;;;5046717;28;20175;-61
2023/06/04 12:07:08;;;;;;;1.87;1.17;;;20.00;96.30;;;;;;5065158;28;20173;-61
2023/06/04 12:09:35;;;;;;;3.50;1.23;;;20.10;97.60;;;;;;5063109;28;20165;-61
2023/06/04 12:12:02;;;;;;;1.67;1.10;;;20.30;97.30;;;;;;5059818;28;20192;-60
2023/06/04 12:14:29;;;;;;;3.50;1.37;;;20.40;98.20;;;;;;5061507;28;20221;-60
2023/06/04 12:16:59;;;;;;;3.07;1.63;;;20.60;97.30;;;;;;5044216;28;20234;-59
2023/06/04 12:19:26;;;;;;;6.07;1.60;;;20.60;95.50;;;;;;5062030;28;20251;-60
2023/06/04 12:22:06;;;;;;;2.83;1.40;;;20.50;95.00;;;;;;5063250;28;20165;-61
2023/06/04 12:24:52;;;;;;;5.03;1.87;;;20.60;95.80;;;;;;5046513;28;20180;-61
2023/06/04 12:27:23;;;;;;;2.40;1.23;;;20.70;96.40;;;;;;5050359;28;20181;-60
2023/06/04 12:29:59;;;;;;;3.80;1.93;;;20.90;98.00;;;;;;5066665;28;20298;-60
2023/06/04 12:32:26;;;;;;;2.07;1.30;;;21.10;97.40;;;;;;5063677;28;20230;-60
2023/06/04 12:34:53;;;;;;;2.60;1.73;;;21.20;97.50;;;;;;5046341;28;20696;-57
2023/06/04 12:37:20;;;;;;;2.23;1.60;;;21.40;94.50;;;;;;5047610;28;20305;-59
2023/06/04 12:39:46;;;;;;;2.97;1.93;;;21.40;93.10;;;;;;5047332;28;20177;-59
2023/06/04 12:42:13;;;;;;;3.30;1.40;;;21.40;92.00;;;;;;5046022;28;20165;-60
2023/06/04 12:44:41;;;;;;;3.30;1.97;;;21.30;90.60;;;;;;5046329;28;20218;-61
2023/06/04 12:47:07;;;;;;;4.07;1.83;;;21.30;92.40;;;;;;5047514;28;20173;-60
2023/06/04 12:49:33;;;;;;;4.43;1.50;;;21.40;90.60;;;;;;5047633;28;20251;-61